Time;durP1;ratioP1;P1;durP2;ratioP2;P2;SDS_P1;SDS_P2;PMS_P1;PMS_P2;Temp;Humidity;BMP_temperature;BMP_pressure;BME280_temperature;BME280_humidity;BME280_pressure;Samples;Min_cycle;Max_cycle;Signal;HPM_P1;HPM_P2
2022/03/21 00:00:39;;;;;;;35.03;15.45;;;;;;;;;;5072539;28;20450;-77
2022/03/21 00:03:09;;;;;;;32.13;15.38;;;;;;;;;;5057082;28;20044;-76
2022/03/21 00:05:35;;;;;;;30.92;15.10;;;;;;;;;;5070227;28;20036;-76
2022/03/21 00:08:02;;;;;;;31.35;14.57;;;;;;;;;;5073177;28;20508;-78
2022/03/21 00:10:28;;;;;;;30.98;14.02;;;;;;;;;;5072927;28;20087;-78
2022/03/21 00:12:54;;;;;;;31.08;14.25;;;;;;;;;;5056700;28;20044;-76
2022/03/21 00:15:20;;;;;;;30.75;14.98;;;;;;;;;;5056328;28;20459;-76
2022/03/21 00:17:46;;;;;;;32.50;14.27;;;;;;;;;;5055320;28;20075;-76
2022/03/21 00:20:13;;;;;;;32.53;14.63;;;;;;;;;;5054487;28;20036;-76
2022/03/21 00:22:39;;;;;;;36.90;14.18;;;;;;;;;;5053997;28;20036;-76
2022/03/21 00:25:06;;;;;;;28.30;13.25;;;;;;;;;;5055325;28;20040;-76
2022/03/21 00:27:36;;;;;;;33.20;13.95;;;;;;;;;;5069727;28;20043;-77
2022/03/21 00:30:03;;;;;;;28.25;13.27;;;;;;;;;;5054106;28;20094;-75
2022/03/21 00:32:29;;;;;;;27.95;12.70;;;;;;;;;;5057672;28;20447;-75
2022/03/21 00:34:55;;;;;;;28.23;12.48;;;;;;;;;;5072209;28;20045;-76
2022/03/21 00:37:23;;;;;;;30.48;13.45;;;;;;;;;;5055603;28;20036;-76
2022/03/21 00:39:49;;;;;;;29.60;13.18;;;;;;;;;;5071145;28;20044;-76
2022/03/21 00:42:15;;;;;;;28.48;13.82;;;;;;;;;;5070667;28;20071;-77
2022/03/21 00:44:41;;;;;;;25.75;12.05;;;;;;;;;;5071446;28;20523;-75
2022/03/21 00:47:07;;;;;;;30.58;13.93;;;;;;;;;;5055466;28;20129;-77
2022/03/21 00:49:33;;;;;;;29.25;13.25;;;;;;;;;;5055051;28;20090;-76
2022/03/21 00:51:59;;;;;;;31.63;14.10;;;;;;;;;;5070904;28;20476;-75
2022/03/21 00:54:25;;;;;;;28.63;13.73;;;;;;;;;;5054415;28;20056;-77
2022/03/21 00:56:51;;;;;;;30.13;13.63;;;;;;;;;;5068608;28;20033;-76
2022/03/21 00:59:17;;;;;;;35.55;13.73;;;;;;;;;;5054519;28;20033;-76
2022/03/21 01:01:43;;;;;;;29.23;12.85;;;;;;;;;;5054469;28;20044;-76
2022/03/21 01:04:09;;;;;;;28.85;13.40;;;;;;;;;;5070779;28;20107;-76
2022/03/21 01:06:35;;;;;;;29.23;12.50;;;;;;;;;;5055531;28;20128;-77
2022/03/21 01:09:01;;;;;;;30.17;14.38;;;;;;;;;;5071003;28;20067;-75
2022/03/21 01:11:27;;;;;;;27.45;12.70;;;;;;;;;;5071879;28;20051;-78
2022/03/21 01:13:53;;;;;;;34.13;13.77;;;;;;;;;;5054338;28;20455;-76
2022/03/21 01:16:19;;;;;;;29.13;13.32;;;;;;;;;;5054593;28;20087;-76
2022/03/21 01:18:45;;;;;;;30.30;13.52;;;;;;;;;;5055038;28;20060;-77
2022/03/21 01:21:12;;;;;;;28.15;13.10;;;;;;;;;;5070826;28;20086;-75
2022/03/21 01:23:38;;;;;;;29.73;13.70;;;;;;;;;;5053831;28;20068;-75
2022/03/21 01:26:04;;;;;;;26.90;12.65;;;;;;;;;;5053943;28;20670;-76
2022/03/21 01:28:30;;;;;;;31.13;14.43;;;;;;;;;;5055488;28;20113;-77
2022/03/21 01:30:56;;;;;;;29.90;14.30;;;;;;;;;;5054373;28;20040;-76
2022/03/21 01:33:22;;;;;;;30.13;13.70;;;;;;;;;;5053578;28;20047;-76
2022/03/21 01:35:48;;;;;;;29.98;13.75;;;;;;;;;;5053176;28;20059;-76
2022/03/21 01:38:14;;;;;;;30.58;13.88;;;;;;;;;;5070421;28;20094;-76
2022/03/21 01:40:40;;;;;;;32.78;14.93;;;;;;;;;;5071020;28;20032;-76
2022/03/21 01:43:10;;;;;;;32.42;14.73;;;;;;;;;;5073173;28;21394;-76
2022/03/21 01:45:36;;;;;;;33.67;15.63;;;;;;;;;;5070745;28;20044;-76
2022/03/21 01:48:02;;;;;;;34.85;15.80;;;;;;;;;;5057818;28;20033;-76
2022/03/21 01:50:28;;;;;;;33.97;15.57;;;;;;;;;;5057400;28;20041;-76
2022/03/21 01:55:43;;;;;;;37.90;14.65;;;;;;;;;;5073103;28;20044;-76
2022/03/21 01:55:44;;;;;;;31.65;15.25;;;;;;;;;;5071885;28;20076;-76
2022/03/21 01:58:10;;;;;;;31.58;15.20;;;;;;;;;;5057222;28;20434;-75
2022/03/21 02:00:37;;;;;;;30.83;14.45;;;;;;;;;;5057256;28;20075;-75
2022/03/21 02:03:03;;;;;;;32.80;14.57;;;;;;;;;;5072316;28;20443;-76
2022/03/21 02:05:29;;;;;;;30.83;14.55;;;;;;;;;;5073447;28;20069;-75
2022/03/21 02:07:55;;;;;;;32.53;14.95;;;;;;;;;;5055345;28;20399;-75
2022/03/21 02:10:22;;;;;;;33.38;15.65;;;;;;;;;;5072622;28;20047;-75
2022/03/21 02:12:47;;;;;;;34.70;14.57;;;;;;;;;;5054998;28;20036;-75
2022/03/21 02:15:13;;;;;;;35.85;14.85;;;;;;;;;;5072107;28;20125;-77
2022/03/21 02:17:41;;;;;;;32.42;15.35;;;;;;;;;;5072344;28;20119;-75
2022/03/21 02:20:07;;;;;;;33.65;16.38;;;;;;;;;;5055078;28;20166;-76
2022/03/21 02:22:36;;;;;;;38.50;17.10;;;;;;;;;;5055058;28;20067;-76
2022/03/21 02:25:06;;;;;;;30.60;15.07;;;;;;;;;;5056266;28;20036;-75
2022/03/21 02:27:33;;;;;;;34.97;15.32;;;;;;;;;;5055618;28;20115;-75
2022/03/21 02:30:00;;;;;;;30.88;15.30;;;;;;;;;;5073548;28;20032;-75
2022/03/21 02:32:27;;;;;;;31.77;13.93;;;;;;;;;;5056481;28;20037;-77
2022/03/21 02:34:54;;;;;;;32.55;15.65;;;;;;;;;;5056225;28;20132;-79
2022/03/21 02:37:21;;;;;;;32.17;13.98;;;;;;;;;;5072916;28;20039;-75
2022/03/21 02:39:49;;;;;;;31.63;14.75;;;;;;;;;;5052750;28;20044;-80
2022/03/21 02:42:15;;;;;;;32.17;13.82;;;;;;;;;;5051091;28;20036;-78
2022/03/21 02:44:41;;;;;;;31.02;14.80;;;;;;;;;;5051364;28;20535;-75
2022/03/21 02:47:07;;;;;;;33.25;13.88;;;;;;;;;;5053045;28;20586;-80
2022/03/21 02:49:34;;;;;;;29.55;13.40;;;;;;;;;;5068849;28;20047;-77
2022/03/21 02:52:04;;;;;;;28.67;13.88;;;;;;;;;;5051854;28;20556;-77
2022/03/21 02:54:30;;;;;;;25.80;13.48;;;;;;;;;;5053137;28;20041;-75
2022/03/21 02:56:56;;;;;;;26.13;12.63;;;;;;;;;;5051755;28;20044;-76
2022/03/21 02:59:22;;;;;;;26.67;13.15;;;;;;;;;;5071015;28;20045;-76
2022/03/21 03:01:53;;;;;;;24.73;13.05;;;;;;;;;;5052448;28;20029;-77
2022/03/21 03:04:19;;;;;;;25.95;11.73;;;;;;;;;;5053439;28;20040;-75
2022/03/21 03:06:45;;;;;;;24.85;11.40;;;;;;;;;;5068292;28;20388;-78
2022/03/21 03:09:11;;;;;;;30.08;12.43;;;;;;;;;;5069213;28;20044;-76
2022/03/21 03:11:37;;;;;;;25.48;11.55;;;;;;;;;;5068591;28;20050;-76
2022/03/21 03:14:04;;;;;;;27.30;13.07;;;;;;;;;;5053192;28;20114;-75
2022/03/21 03:16:30;;;;;;;28.38;11.85;;;;;;;;;;5053961;28;20109;-75
2022/03/21 03:18:56;;;;;;;25.15;12.30;;;;;;;;;;5055151;28;20119;-75
2022/03/21 03:21:24;;;;;;;28.40;12.77;;;;;;;;;;5072468;28;20179;-75
2022/03/21 03:23:51;;;;;;;25.42;11.48;;;;;;;;;;5072992;28;20385;-75
2022/03/21 03:26:17;;;;;;;29.10;13.02;;;;;;;;;;5073368;28;20533;-76
2022/03/21 03:28:43;;;;;;;26.30;12.63;;;;;;;;;;5072916;28;20040;-75
2022/03/21 03:31:09;;;;;;;29.08;13.20;;;;;;;;;;5055617;28;20455;-75
2022/03/21 03:33:36;;;;;;;33.67;14.02;;;;;;;;;;5056160;28;20412;-76
2022/03/21 03:36:03;;;;;;;29.73;14.05;;;;;;;;;;5055268;28;20059;-75
2022/03/21 03:38:29;;;;;;;21.75;12.10;;;;;;;;;;5072089;28;20047;-76
2022/03/21 03:40:55;;;;;;;26.55;12.98;;;;;;;;;;5054913;28;20041;-75
2022/03/21 03:43:21;;;;;;;24.05;12.55;;;;;;;;;;5054454;28;20037;-75
2022/03/21 03:45:52;;;;;;;26.17;12.45;;;;;;;;;;5054517;28;20047;-76
2022/03/21 03:48:22;;;;;;;29.08;13.00;;;;;;;;;;5054762;28;20044;-76
2022/03/21 03:50:48;;;;;;;29.77;12.38;;;;;;;;;;5071083;28;20040;-75
2022/03/21 03:53:15;;;;;;;25.20;12.07;;;;;;;;;;5054950;28;20959;-76
2022/03/21 03:55:41;;;;;;;27.20;12.40;;;;;;;;;;5071355;28;20032;-76
2022/03/21 03:58:07;;;;;;;25.50;11.93;;;;;;;;;;5071612;28;20148;-76
2022/03/21 04:00:34;;;;;;;25.15;11.52;;;;;;;;;;5072595;28;20036;-76
2022/03/21 04:05:45;;;;;;;29.00;13.30;;;;;;;;;;5071850;28;20202;-76
2022/03/21 04:08:11;;;;;;;27.67;13.05;;;;;;;;;;5071602;28;20044;-76
2022/03/21 04:10:37;;;;;;;26.23;12.68;;;;;;;;;;5055655;28;20127;-76
2022/03/21 04:13:03;;;;;;;26.02;11.27;;;;;;;;;;5071770;28;20447;-76
2022/03/21 04:15:29;;;;;;;27.38;11.60;;;;;;;;;;5054504;28;20051;-76
2022/03/21 04:17:59;;;;;;;28.63;13.93;;;;;;;;;;5054044;28;20046;-76
2022/03/21 04:20:25;;;;;;;36.65;14.90;;;;;;;;;;5053975;28;20451;-77
2022/03/21 04:22:51;;;;;;;30.42;14.50;;;;;;;;;;5054249;28;20037;-76
2022/03/21 04:25:18;;;;;;;33.90;13.15;;;;;;;;;;5054252;28;20043;-76
2022/03/21 04:27:44;;;;;;;29.17;13.80;;;;;;;;;;5053765;28;20051;-76
2022/03/21 04:30:10;;;;;;;30.15;13.88;;;;;;;;;;5053889;28;20086;-76
2022/03/21 04:32:36;;;;;;;34.42;14.60;;;;;;;;;;5054037;28;20041;-76
2022/03/21 04:35:03;;;;;;;31.85;14.00;;;;;;;;;;5055299;28;20484;-76
2022/03/21 04:37:29;;;;;;;32.42;13.95;;;;;;;;;;5056119;28;20081;-77
2022/03/21 04:39:55;;;;;;;28.70;14.32;;;;;;;;;;5074493;28;20076;-77
2022/03/21 04:42:22;;;;;;;34.28;13.57;;;;;;;;;;5074654;28;20059;-77
2022/03/21 04:44:50;;;;;;;28.88;13.93;;;;;;;;;;5056749;28;20477;-76
2022/03/21 04:47:16;;;;;;;32.47;13.90;;;;;;;;;;5074345;28;20519;-77
2022/03/21 04:49:42;;;;;;;33.15;14.52;;;;;;;;;;5056435;28;20040;-77
2022/03/21 04:52:08;;;;;;;33.30;14.38;;;;;;;;;;5054266;28;20378;-76
2022/03/21 04:54:34;;;;;;;36.45;16.27;;;;;;;;;;5053721;28;20498;-76
2022/03/21 04:57:00;;;;;;;42.45;15.13;;;;;;;;;;5070156;28;20040;-76
2022/03/21 04:59:26;;;;;;;35.20;14.05;;;;;;;;;;5053493;28;20036;-76
2022/03/21 05:01:52;;;;;;;37.15;15.50;;;;;;;;;;5070126;28;20036;-76
2022/03/21 05:04:19;;;;;;;35.20;15.45;;;;;;;;;;5053548;28;20155;-75
2022/03/21 05:06:46;;;;;;;33.30;15.23;;;;;;;;;;5070715;28;20540;-75
2022/03/21 05:09:12;;;;;;;38.40;15.70;;;;;;;;;;5053634;28;20090;-76
2022/03/21 05:11:38;;;;;;;35.80;15.27;;;;;;;;;;5070246;28;20094;-76
2022/03/21 05:14:04;;;;;;;32.03;13.00;;;;;;;;;;5070290;28;20041;-76
2022/03/21 05:16:30;;;;;;;29.27;13.38;;;;;;;;;;5071690;28;20060;-76
2022/03/21 05:18:56;;;;;;;31.35;14.77;;;;;;;;;;5074065;28;20044;-76
2022/03/21 05:21:22;;;;;;;32.33;13.98;;;;;;;;;;5057284;28;20469;-76
2022/03/21 05:32:01;;;;;;;38.88;15.15;;;;;;;;;;5073978;28;20553;-76
2022/03/21 05:37:12;;;;;;;38.03;14.48;;;;;;;;;;5073601;28;20048;-76
2022/03/21 05:40:31;;;;;;;33.67;14.27;;;;;;;;;;5057467;28;20036;-76
2022/03/21 05:42:24;;;;;;;27.38;13.02;;;;;;;;;;5073386;28;20454;-76
2022/03/21 05:44:50;;;;;;;34.25;14.63;;;;;;;;;;5073386;28;20115;-76
2022/03/21 05:47:16;;;;;;;34.25;14.70;;;;;;;;;;5073631;28;20535;-76
2022/03/21 05:49:42;;;;;;;40.08;15.82;;;;;;;;;;5073506;28;20075;-76
2022/03/21 05:52:08;;;;;;;32.95;13.55;;;;;;;;;;5057105;28;20427;-77
2022/03/21 05:54:35;;;;;;;32.10;15.90;;;;;;;;;;5056977;28;20040;-76
2022/03/21 05:57:01;;;;;;;35.55;15.45;;;;;;;;;;5056545;28;20086;-76
2022/03/21 06:02:11;;;;;;;31.10;13.60;;;;;;;;;;5073277;28;20068;-75
2022/03/21 06:04:37;;;;;;;26.30;10.80;;;;;;;;;;5056511;28;20091;-76
2022/03/21 06:07:03;;;;;;;23.98;11.80;;;;;;;;;;5073506;28;20062;-76
2022/03/21 06:09:29;;;;;;;20.33;8.75;;;;;;;;;;5073040;28;20048;-76
2022/03/21 06:11:55;;;;;;;25.23;10.05;;;;;;;;;;5073501;28;20037;-76
2022/03/21 06:14:22;;;;;;;22.63;10.95;;;;;;;;;;5056383;28;20040;-76
2022/03/21 06:16:48;;;;;;;28.20;12.73;;;;;;;;;;5055727;28;20060;-76
2022/03/21 06:19:15;;;;;;;34.42;13.93;;;;;;;;;;5056626;28;20044;-75
2022/03/21 06:21:41;;;;;;;27.75;13.65;;;;;;;;;;5056335;28;20040;-76
2022/03/21 06:24:08;;;;;;;31.50;14.23;;;;;;;;;;5073112;28;20396;-76
2022/03/21 06:26:34;;;;;;;36.03;14.93;;;;;;;;;;5072351;28;20044;-76
2022/03/21 06:29:00;;;;;;;29.27;13.57;;;;;;;;;;5055377;28;20032;-76
2022/03/21 06:31:26;;;;;;;30.80;14.20;;;;;;;;;;5073026;28;20052;-76
2022/03/21 06:33:52;;;;;;;33.47;14.57;;;;;;;;;;5072592;28;20055;-76
2022/03/21 06:36:18;;;;;;;32.20;14.27;;;;;;;;;;5055664;28;20135;-76
2022/03/21 06:38:44;;;;;;;34.40;14.75;;;;;;;;;;5072300;28;20742;-76
2022/03/21 06:41:10;;;;;;;35.72;14.52;;;;;;;;;;5055866;28;20059;-76
2022/03/21 06:43:36;;;;;;;33.92;14.20;;;;;;;;;;5055938;28;20407;-75
2022/03/21 06:46:02;;;;;;;34.10;15.05;;;;;;;;;;5073105;28;20123;-76
2022/03/21 06:48:28;;;;;;;38.70;14.77;;;;;;;;;;5073002;28;20048;-76
2022/03/21 06:50:55;;;;;;;33.72;15.80;;;;;;;;;;5072299;28;20488;-76
2022/03/21 06:53:22;;;;;;;31.17;13.77;;;;;;;;;;5072113;28;20044;-76
2022/03/21 06:55:48;;;;;;;33.67;15.07;;;;;;;;;;5055349;28;20044;-75
2022/03/21 06:58:14;;;;;;;35.45;14.90;;;;;;;;;;5055874;28;20373;-75
2022/03/21 07:00:40;;;;;;;34.15;14.55;;;;;;;;;;5055756;28;20067;-76
2022/03/21 07:03:07;;;;;;;37.40;14.82;;;;;;;;;;5055792;28;20106;-76
2022/03/21 07:05:34;;;;;;;32.90;14.05;;;;;;;;;;5056142;28;20098;-76
2022/03/21 07:08:00;;;;;;;37.72;15.13;;;;;;;;;;5070353;28;20044;-76
2022/03/21 07:10:26;;;;;;;38.55;15.52;;;;;;;;;;5068588;28;20134;-76
2022/03/21 07:12:52;;;;;;;44.63;17.45;;;;;;;;;;5068272;28;20079;-76
2022/03/21 07:15:18;;;;;;;41.65;15.95;;;;;;;;;;5052341;28;20066;-77
2022/03/21 07:17:44;;;;;;;37.08;16.00;;;;;;;;;;5070338;28;20518;-76
2022/03/21 07:20:11;;;;;;;28.00;12.93;;;;;;;;;;5053084;28;20044;-76
2022/03/21 07:22:37;;;;;;;25.17;12.23;;;;;;;;;;5051938;28;20075;-76
2022/03/21 07:25:03;;;;;;;24.65;10.68;;;;;;;;;;5052069;28;20044;-76
2022/03/21 07:27:29;;;;;;;21.10;11.07;;;;;;;;;;5053638;28;20382;-77
2022/03/21 07:29:55;;;;;;;29.00;11.82;;;;;;;;;;5052630;28;20089;-76
2022/03/21 07:32:21;;;;;;;23.48;10.75;;;;;;;;;;5052232;28;20044;-76
2022/03/21 07:34:47;;;;;;;23.50;11.68;;;;;;;;;;5069022;28;20070;-76
2022/03/21 07:37:13;;;;;;;21.80;11.35;;;;;;;;;;5068335;28;20587;-76
2022/03/21 07:39:39;;;;;;;20.20;10.48;;;;;;;;;;5068975;28;20491;-77
2022/03/21 07:42:07;;;;;;;26.88;11.80;;;;;;;;;;5051610;28;20048;-76
2022/03/21 07:47:20;;;;;;;20.67;11.00;;;;;;;;;;5067430;28;20048;-74
2022/03/21 07:49:50;;;;;;;23.08;11.65;;;;;;;;;;5067048;28;20337;-74
2022/03/21 07:52:20;;;;;;;21.17;10.07;;;;;;;;;;5050847;28;20070;-74
2022/03/21 07:54:53;;;;;;;22.40;11.15;;;;;;;;;;5050951;28;20036;-74
2022/03/21 07:57:19;;;;;;;20.40;10.48;;;;;;;;;;5050684;28;20036;-74
2022/03/21 07:59:45;;;;;;;26.15;11.30;;;;;;;;;;5050472;28;20036;-74
2022/03/21 08:02:11;;;;;;;23.40;11.05;;;;;;;;;;5050264;28;20063;-74
2022/03/21 08:04:37;;;;;;;18.58;10.95;;;;;;;;;;5051164;28;20044;-74
2022/03/21 08:07:04;;;;;;;20.48;10.50;;;;;;;;;;5050755;28;20052;-74
2022/03/21 08:09:30;;;;;;;21.75;11.20;;;;;;;;;;5050369;28;20044;-74
2022/03/21 08:12:02;;;;;;;21.60;11.35;;;;;;;;;;5050420;28;20496;-75
2022/03/21 08:14:28;;;;;;;20.20;10.80;;;;;;;;;;5067345;28;20055;-75
2022/03/21 08:16:54;;;;;;;22.17;11.63;;;;;;;;;;5050153;28;20052;-75
2022/03/21 08:19:24;;;;;;;23.40;10.98;;;;;;;;;;5050448;28;20060;-75
2022/03/21 08:21:54;;;;;;;22.55;11.82;;;;;;;;;;5050641;28;20427;-75
2022/03/21 08:24:21;;;;;;;19.27;11.57;;;;;;;;;;5050181;28;20514;-75
2022/03/21 08:26:47;;;;;;;22.17;11.65;;;;;;;;;;5050310;28;20439;-75
2022/03/21 08:29:13;;;;;;;21.75;10.55;;;;;;;;;;5049996;28;20036;-75
2022/03/21 08:31:39;;;;;;;20.30;11.40;;;;;;;;;;5067015;28;20051;-74
2022/03/21 08:34:05;;;;;;;21.00;11.68;;;;;;;;;;5066803;28;20044;-75
2022/03/21 08:36:31;;;;;;;20.90;12.15;;;;;;;;;;5066370;28;20404;-75
2022/03/21 08:38:58;;;;;;;21.00;12.15;;;;;;;;;;5050240;28;20044;-75
2022/03/21 08:41:24;;;;;;;20.58;11.50;;;;;;;;;;5049965;28;20040;-75
2022/03/21 08:43:50;;;;;;;19.27;11.25;;;;;;;;;;5050149;28;20076;-75
2022/03/21 08:46:16;;;;;;;21.48;11.30;;;;;;;;;;5066641;28;20045;-75
2022/03/21 08:51:27;;;;;;;21.02;11.27;;;;;;;;;;5068893;28;20044;-75
2022/03/21 08:53:53;;;;;;;21.70;11.57;;;;;;;;;;5053613;28;20054;-78
2022/03/21 08:56:19;;;;;;;20.00;11.57;;;;;;;;;;5070242;28;20041;-75
2022/03/21 08:58:45;;;;;;;23.08;17.30;;;;;;;;;;5053359;28;20158;-74
2022/03/21 09:01:12;;;;;;;23.58;11.75;;;;;;;;;;5070102;28;20528;-76
2022/03/21 09:03:38;;;;;;;21.98;10.45;;;;;;;;;;5069918;28;20071;-75
2022/03/21 09:06:04;;;;;;;23.67;18.25;;;;;;;;;;5070009;28;20510;-75
2022/03/21 09:08:30;;;;;;;20.27;10.88;;;;;;;;;;5069971;28;20131;-75
2022/03/21 09:10:56;;;;;;;22.98;18.35;;;;;;;;;;5069890;28;20098;-75
2022/03/21 09:13:23;;;;;;;24.08;12.07;;;;;;;;;;5069879;28;20037;-74
2022/03/21 09:15:49;;;;;;;18.17;10.93;;;;;;;;;;5069660;28;20417;-74
2022/03/21 09:18:15;;;;;;;23.13;11.60;;;;;;;;;;5053327;28;20041;-73
2022/03/21 09:20:41;;;;;;;21.10;11.77;;;;;;;;;;5069876;28;20040;-76
2022/03/21 09:23:07;;;;;;;18.98;10.70;;;;;;;;;;5069783;28;20036;-74
2022/03/21 09:25:34;;;;;;;25.42;11.70;;;;;;;;;;5053155;28;20454;-74
2022/03/21 09:28:00;;;;;;;20.48;11.10;;;;;;;;;;5053459;28;20476;-75
2022/03/21 09:30:26;;;;;;;23.40;11.35;;;;;;;;;;5053494;28;20048;-74
2022/03/21 09:32:52;;;;;;;20.42;9.80;;;;;;;;;;5070023;28;20070;-75
2022/03/21 09:35:18;;;;;;;17.85;9.40;;;;;;;;;;5053036;28;20036;-74
2022/03/21 09:37:44;;;;;;;22.20;11.38;;;;;;;;;;5053204;28;20040;-73
2022/03/21 09:40:10;;;;;;;22.55;11.02;;;;;;;;;;5052859;28;20086;-76
2022/03/21 09:42:36;;;;;;;19.88;11.13;;;;;;;;;;5052838;28;20480;-74
2022/03/21 09:45:04;;;;;;;24.13;10.65;;;;;;;;;;5052932;28;20075;-75
2022/03/21 09:50:16;;;;;;;19.25;11.15;;;;;;;;;;5069549;28;20049;-74
2022/03/21 09:52:42;;;;;;;18.20;10.15;;;;;;;;;;5052991;28;20072;-75
2022/03/21 09:55:08;;;;;;;28.23;11.98;;;;;;;;;;5053313;28;20121;-74
2022/03/21 09:57:35;;;;;;;23.00;11.35;;;;;;;;;;5052763;28;20115;-75
2022/03/21 10:00:02;;;;;;;22.88;11.77;;;;;;;;;;5053053;28;20041;-75
2022/03/21 10:02:28;;;;;;;21.20;10.93;;;;;;;;;;5054786;28;20119;-74
2022/03/21 10:04:54;;;;;;;24.35;11.52;;;;;;;;;;5073296;28;20078;-74
2022/03/21 10:07:27;;;;;;;23.50;11.80;;;;;;;;;;5073232;28;20488;-74
2022/03/21 10:10:06;;;;;;;24.08;11.40;;;;;;;;;;5056455;28;20044;-74
2022/03/21 10:12:32;;;;;;;24.50;13.15;;;;;;;;;;5072828;28;20040;-73
2022/03/21 10:14:59;;;;;;;26.10;12.93;;;;;;;;;;5072722;28;20064;-73
2022/03/21 10:17:25;;;;;;;25.60;12.63;;;;;;;;;;5055985;28;20055;-72
2022/03/21 10:19:52;;;;;;;27.55;12.43;;;;;;;;;;5056124;28;20036;-72
2022/03/21 10:22:21;;;;;;;25.13;13.70;;;;;;;;;;5072969;28;20075;-73
2022/03/21 10:24:51;;;;;;;23.75;12.93;;;;;;;;;;5072812;28;20037;-75
2022/03/21 10:27:28;;;;;;;27.70;13.23;;;;;;;;;;5056190;28;20557;-73
2022/03/21 10:29:59;;;;;;;26.23;13.23;;;;;;;;;;5055831;28;20079;-74
2022/03/21 10:32:46;;;;;;;27.00;12.82;;;;;;;;;;5072501;28;20044;-73
2022/03/21 10:35:23;;;;;;;23.42;12.00;;;;;;;;;;5055726;28;20071;-74
2022/03/21 10:37:53;;;;;;;24.73;13.48;;;;;;;;;;5072498;28;20037;-73
2022/03/21 10:40:33;;;;;;;24.27;12.63;;;;;;;;;;5072291;28;20068;-74
2022/03/21 10:43:03;;;;;;;24.67;13.10;;;;;;;;;;5072885;28;20349;-76
2022/03/21 10:45:35;;;;;;;29.42;13.27;;;;;;;;;;5072336;28;20071;-76
2022/03/21 10:48:04;;;;;;;28.35;14.10;;;;;;;;;;5055790;28;20040;-74
2022/03/21 10:50:41;;;;;;;31.38;15.10;;;;;;;;;;5055733;28;20490;-75
2022/03/21 10:53:17;;;;;;;26.60;12.98;;;;;;;;;;5055105;28;20412;-75
2022/03/21 10:55:44;;;;;;;30.23;13.93;;;;;;;;;;5055231;28;20048;-73
2022/03/21 10:58:11;;;;;;;28.67;14.02;;;;;;;;;;5055402;28;20043;-74
2022/03/21 11:00:37;;;;;;;30.90;14.57;;;;;;;;;;5071986;28;20028;-76
2022/03/21 11:03:06;;;;;;;35.42;15.95;;;;;;;;;;5071822;28;20048;-76
2022/03/21 11:05:39;;;;;;;26.67;14.30;;;;;;;;;;5055266;28;20051;-74
2022/03/21 11:08:06;;;;;;;30.35;13.98;;;;;;;;;;5055191;28;20036;-74
2022/03/21 11:10:32;;;;;;;27.63;14.77;;;;;;;;;;5071850;28;20127;-75
2022/03/21 11:13:01;;;;;;;27.77;14.52;;;;;;;;;;5054714;28;20048;-72
2022/03/21 11:15:27;;;;;;;30.95;13.55;;;;;;;;;;5054571;28;20057;-75
2022/03/21 11:17:55;;;;;;;29.77;14.65;;;;;;;;;;5071820;28;20110;-74
2022/03/21 11:20:21;;;;;;;29.90;14.52;;;;;;;;;;5054930;28;20041;-74
2022/03/21 11:22:46;;;;;;;29.80;16.02;;;;;;;;;;5071607;28;20090;-73
2022/03/21 11:25:13;;;;;;;31.15;14.57;;;;;;;;;;5071860;28;20044;-75
2022/03/21 11:27:48;;;;;;;26.33;13.13;;;;;;;;;;5071403;28;20036;-74
2022/03/21 11:30:14;;;;;;;29.10;14.35;;;;;;;;;;5054682;28;20119;-73
2022/03/21 11:32:58;;;;;;;31.25;14.88;;;;;;;;;;5071423;28;20142;-75
2022/03/21 11:35:25;;;;;;;27.55;14.73;;;;;;;;;;5071413;28;20044;-74
2022/03/21 11:37:53;;;;;;;30.23;15.52;;;;;;;;;;5054651;28;20044;-74
2022/03/21 11:40:26;;;;;;;31.00;13.63;;;;;;;;;;5071481;28;20040;-77
2022/03/21 11:42:53;;;;;;;27.45;14.35;;;;;;;;;;5071261;28;20594;-75
2022/03/21 11:45:24;;;;;;;34.20;14.75;;;;;;;;;;5054631;28;20075;-74
2022/03/21 11:47:51;;;;;;;27.95;14.30;;;;;;;;;;5071375;28;20036;-74
2022/03/21 11:50:27;;;;;;;27.90;13.98;;;;;;;;;;5054392;28;20050;-77
2022/03/21 11:53:09;;;;;;;27.95;14.05;;;;;;;;;;5054326;28;20036;-74
2022/03/21 11:55:38;;;;;;;27.65;13.65;;;;;;;;;;5054239;28;20471;-74
2022/03/21 11:58:22;;;;;;;28.17;14.27;;;;;;;;;;5070808;28;20063;-73
2022/03/21 12:01:03;;;;;;;29.50;14.07;;;;;;;;;;5071152;28;20040;-77
2022/03/21 12:03:29;;;;;;;28.40;14.13;;;;;;;;;;5054137;28;20036;-73
2022/03/21 12:05:55;;;;;;;30.63;13.02;;;;;;;;;;5071012;28;20523;-74
2022/03/21 12:08:35;;;;;;;29.38;14.35;;;;;;;;;;5054430;28;20392;-75
2022/03/21 12:11:01;;;;;;;30.15;13.82;;;;;;;;;;5070692;28;20048;-74
2022/03/21 12:13:38;;;;;;;32.30;14.40;;;;;;;;;;5054230;28;20040;-74
2022/03/21 12:16:16;;;;;;;27.20;14.38;;;;;;;;;;5070436;28;20066;-74
2022/03/21 12:19:01;;;;;;;28.15;13.43;;;;;;;;;;5054021;28;20316;-73
2022/03/21 12:21:27;;;;;;;26.20;13.23;;;;;;;;;;5070488;28;20043;-73
2022/03/21 12:24:13;;;;;;;32.42;14.25;;;;;;;;;;5070566;28;20537;-74
2022/03/21 12:26:47;;;;;;;30.33;14.30;;;;;;;;;;5070469;28;20043;-72
2022/03/21 12:29:34;;;;;;;28.58;13.52;;;;;;;;;;5053986;28;20139;-73
2022/03/21 12:32:19;;;;;;;29.58;14.20;;;;;;;;;;5053749;28;20404;-73
2022/03/21 12:34:45;;;;;;;26.95;13.85;;;;;;;;;;5070416;28;20131;-74
2022/03/21 12:37:29;;;;;;;28.70;14.57;;;;;;;;;;5064303;28;20124;-73
2022/03/21 12:39:57;;;;;;;28.77;14.48;;;;;;;;;;5050346;28;20068;-74
2022/03/21 12:42:27;;;;;;;30.05;14.02;;;;;;;;;;5049807;28;20056;-74
2022/03/21 12:44:53;;;;;;;29.85;14.07;;;;;;;;;;5033457;28;20040;-74
2022/03/21 12:47:21;;;;;;;25.13;13.80;;;;;;;;;;5033467;28;20064;-73
2022/03/21 12:49:50;;;;;;;28.00;14.10;;;;;;;;;;5050062;28;20041;-72
2022/03/21 12:52:29;;;;;;;28.92;13.45;;;;;;;;;;5050095;28;20535;-74
2022/03/21 12:54:57;;;;;;;31.75;14.27;;;;;;;;;;5049696;28;20182;-74
2022/03/21 12:57:22;;;;;;;28.88;14.18;;;;;;;;;;5033423;28;20041;-72
2022/03/21 12:59:48;;;;;;;26.25;14.05;;;;;;;;;;5033367;28;20111;-73
2022/03/21 13:02:24;;;;;;;34.88;14.95;;;;;;;;;;5049928;28;20041;-73
2022/03/21 13:10:34;;;;;;;30.15;13.48;;;;;;;;;;5049991;28;20049;-73
2022/03/21 13:13:05;;;;;;;28.40;14.32;;;;;;;;;;5033611;28;20405;-72
2022/03/21 13:15:34;;;;;;;23.17;13.77;;;;;;;;;;5033173;28;20056;-73
2022/03/21 13:18:03;;;;;;;30.95;15.02;;;;;;;;;;5049802;28;20076;-73
2022/03/21 13:20:44;;;;;;;31.83;14.35;;;;;;;;;;5049628;28;20492;-72
2022/03/21 13:23:11;;;;;;;27.02;12.75;;;;;;;;;;5032986;28;20041;-73
2022/03/21 13:25:37;;;;;;;26.08;12.43;;;;;;;;;;5033440;28;20396;-77
2022/03/21 13:28:11;;;;;;;28.17;12.98;;;;;;;;;;5033259;28;20043;-72
2022/03/21 13:30:39;;;;;;;23.35;12.60;;;;;;;;;;5033172;28;20080;-75
2022/03/21 13:33:06;;;;;;;24.63;12.82;;;;;;;;;;5033040;28;20408;-76
2022/03/21 13:35:32;;;;;;;31.25;13.65;;;;;;;;;;5033121;28;20045;-77
2022/03/21 13:37:59;;;;;;;30.95;13.73;;;;;;;;;;5052474;28;20084;-73
2022/03/21 13:40:27;;;;;;;27.10;12.88;;;;;;;;;;5053379;28;20053;-74
2022/03/21 13:42:53;;;;;;;26.55;13.45;;;;;;;;;;5037233;28;20106;-72
2022/03/21 13:45:19;;;;;;;28.95;13.43;;;;;;;;;;5053394;28;20033;-73
2022/03/21 13:47:46;;;;;;;29.98;14.27;;;;;;;;;;5043145;28;20040;-74
2022/03/21 13:50:12;;;;;;;30.67;13.48;;;;;;;;;;5072417;28;20123;-75
2022/03/21 13:52:40;;;;;;;28.35;12.80;;;;;;;;;;5056034;28;20036;-75
2022/03/21 13:55:07;;;;;;;23.33;12.35;;;;;;;;;;5072976;28;20036;-74
2022/03/21 13:57:42;;;;;;;26.50;12.25;;;;;;;;;;5056084;28;20109;-74
2022/03/21 14:00:08;;;;;;;26.15;12.80;;;;;;;;;;5070865;28;20037;-74
2022/03/21 14:02:45;;;;;;;28.52;13.95;;;;;;;;;;5053359;28;20425;-73
2022/03/21 14:05:30;;;;;;;31.45;14.88;;;;;;;;;;5051007;28;20080;-76
2022/03/21 14:08:09;;;;;;;24.80;13.23;;;;;;;;;;5067584;28;20037;-74
2022/03/21 14:10:39;;;;;;;27.83;14.27;;;;;;;;;;5051266;28;20052;-75
2022/03/21 14:13:13;;;;;;;33.10;14.73;;;;;;;;;;5066510;28;20036;-73
2022/03/21 14:15:38;;;;;;;33.67;14.68;;;;;;;;;;5068517;28;20493;-74
2022/03/21 14:18:05;;;;;;;30.17;14.63;;;;;;;;;;5069166;28;20031;-74
2022/03/21 14:20:34;;;;;;;31.45;14.80;;;;;;;;;;5051827;28;20132;-73
2022/03/21 14:23:00;;;;;;;29.48;13.98;;;;;;;;;;5068595;28;20032;-73
2022/03/21 14:28:10;;;;;;;31.95;14.88;;;;;;;;;;5067424;28;20040;-73
2022/03/21 14:30:36;;;;;;;29.55;14.00;;;;;;;;;;5068333;28;20051;-74
2022/03/21 14:33:03;;;;;;;30.63;13.38;;;;;;;;;;5066328;28;20123;-76
2022/03/21 14:35:28;;;;;;;29.05;15.45;;;;;;;;;;5052100;28;20407;-74
2022/03/21 14:37:54;;;;;;;27.45;14.27;;;;;;;;;;5051859;28;20406;-73
2022/03/21 14:40:20;;;;;;;30.38;14.00;;;;;;;;;;5068856;28;20040;-74
2022/03/21 14:42:47;;;;;;;30.77;14.48;;;;;;;;;;5050705;28;20123;-74
2022/03/21 14:45:14;;;;;;;30.17;14.05;;;;;;;;;;5051601;28;20091;-73
2022/03/21 14:47:40;;;;;;;28.88;12.48;;;;;;;;;;5051170;28;20435;-73
2022/03/21 14:50:07;;;;;;;27.10;12.93;;;;;;;;;;5051026;28;20412;-76
2022/03/21 14:52:33;;;;;;;25.45;12.15;;;;;;;;;;5068282;28;20040;-76